Time;durP1;ratioP1;P1;durP2;ratioP2;P2;SDS_P1;SDS_P2;PMS_P1;PMS_P2;Temp;Humidity;BMP_temperature;BMP_pressure;BME280_temperature;BME280_humidity;BME280_pressure;Samples;Min_cycle;Max_cycle;Signal;HPM_P1;HPM_P2
2022/07/19 00:00:47;;;;;;;1.90;1.70;;;20.10;67.60;;;;;;5096769;27;20043;-57
2022/07/19 00:03:14;;;;;;;1.70;1.60;;;20.10;67.60;;;;;;5106226;27;20471;-56
2022/07/19 00:05:40;;;;;;;1.10;1.10;;;20.10;67.60;;;;;;5099992;27;20032;-57
2022/07/19 00:08:06;;;;;;;1.30;1.20;;;20.10;67.50;;;;;;5116897;27;20093;-57
2022/07/19 00:10:31;;;;;;;1.52;1.00;;;20.10;67.40;;;;;;5110522;28;20063;-57
2022/07/19 00:12:57;;;;;;;1.58;1.35;;;20.10;67.50;;;;;;5111268;28;20023;-57
2022/07/19 00:15:23;;;;;;;1.65;1.55;;;20.10;67.50;;;;;;5110634;27;20030;-55
2022/07/19 00:17:49;;;;;;;1.35;1.25;;;20.10;67.50;;;;;;5109633;27;20023;-57
2022/07/19 00:20:18;;;;;;;1.70;1.38;;;20.00;67.50;;;;;;5121141;27;20027;-57
2022/07/19 00:22:44;;;;;;;1.38;1.27;;;20.00;67.60;;;;;;5118269;27;20024;-56
2022/07/19 00:25:10;;;;;;;1.20;1.10;;;20.00;67.50;;;;;;5106285;27;20034;-56
2022/07/19 00:27:36;;;;;;;1.50;1.40;;;20.00;67.50;;;;;;5091584;27;20039;-56
2022/07/19 00:30:04;;;;;;;2.47;1.67;;;20.00;67.50;;;;;;5109537;27;20371;-56
2022/07/19 00:32:30;;;;;;;1.23;1.17;;;20.00;67.60;;;;;;5112466;27;20083;-57
2022/07/19 00:34:55;;;;;;;1.52;1.42;;;20.00;67.60;;;;;;5112302;27;20044;-57
2022/07/19 00:37:21;;;;;;;1.70;1.60;;;20.00;67.60;;;;;;5117268;27;20038;-59
2022/07/19 00:39:47;;;;;;;1.60;1.50;;;19.90;67.50;;;;;;5107666;27;20060;-57
2022/07/19 00:42:14;;;;;;;1.98;1.70;;;19.90;67.60;;;;;;5102124;27;20390;-57
2022/07/19 00:44:40;;;;;;;1.60;1.50;;;19.90;67.70;;;;;;5105550;28;20120;-57
2022/07/19 00:47:06;;;;;;;1.90;1.80;;;19.80;67.80;;;;;;5110861;27;20356;-56
2022/07/19 00:49:32;;;;;;;2.90;1.88;;;19.80;67.80;;;;;;5117529;27;20042;-57
2022/07/19 00:51:59;;;;;;;2.35;2.10;;;19.80;67.80;;;;;;5109115;27;20383;-57
2022/07/19 00:54:25;;;;;;;3.05;2.00;;;19.80;67.70;;;;;;5113048;27;20047;-57
2022/07/19 00:56:52;;;;;;;2.08;1.60;;;19.70;67.70;;;;;;5087571;28;20468;-56
2022/07/19 00:59:18;;;;;;;2.10;1.90;;;19.70;67.80;;;;;;5105732;27;20070;-57
2022/07/19 01:01:44;;;;;;;2.17;1.98;;;19.60;67.90;;;;;;5118357;27;20026;-56
2022/07/19 01:04:10;;;;;;;1.90;1.77;;;19.60;68.10;;;;;;5114938;27;20036;-57
2022/07/19 01:06:37;;;;;;;1.90;1.77;;;19.50;68.20;;;;;;5110212;28;20055;-56
2022/07/19 01:09:03;;;;;;;1.70;1.60;;;19.50;68.30;;;;;;5119457;27;20039;-56
2022/07/19 01:11:29;;;;;;;2.20;2.00;;;19.40;68.30;;;;;;5104142;28;20027;-56
2022/07/19 01:13:55;;;;;;;2.35;1.90;;;19.40;68.30;;;;;;5116458;27;20402;-57
2022/07/19 01:16:20;;;;;;;1.60;1.45;;;19.40;68.30;;;;;;5113719;27;20023;-57
2022/07/19 01:18:46;;;;;;;1.80;1.70;;;19.30;68.30;;;;;;5111675;27;20032;-57
2022/07/19 01:21:22;;;;;;;2.05;1.83;;;19.30;68.30;;;;;;5103368;27;20479;-57
2022/07/19 01:23:49;;;;;;;1.88;1.77;;;19.30;68.30;;;;;;5122687;27;20035;-57
2022/07/19 01:26:15;;;;;;;1.50;1.50;;;19.20;68.40;;;;;;5112027;27;20023;-57
2022/07/19 01:28:41;;;;;;;1.77;1.67;;;19.20;68.30;;;;;;5104274;27;20020;-57
2022/07/19 01:31:07;;;;;;;2.20;2.00;;;19.20;68.40;;;;;;5108662;28;20020;-57
2022/07/19 01:33:41;;;;;;;2.03;1.90;;;19.10;68.30;;;;;;5114705;27;20383;-57
2022/07/19 01:36:08;;;;;;;2.22;1.98;;;19.10;68.20;;;;;;5107242;27;20539;-57
2022/07/19 01:38:34;;;;;;;1.92;1.83;;;19.10;68.20;;;;;;5121353;27;20518;-57
2022/07/19 01:40:59;;;;;;;2.22;1.90;;;19.10;68.10;;;;;;5105880;27;20019;-57
2022/07/19 01:43:25;;;;;;;2.03;1.73;;;19.10;68.10;;;;;;5109323;27;20043;-56
2022/07/19 01:45:53;;;;;;;1.88;1.70;;;19.10;68.20;;;;;;5096792;28;20095;-57
2022/07/19 01:48:19;;;;;;;2.63;1.83;;;19.10;68.20;;;;;;5098178;28;20410;-57
2022/07/19 01:50:45;;;;;;;1.88;1.77;;;19.10;68.30;;;;;;5096135;28;20036;-57
2022/07/19 01:53:10;;;;;;;2.83;2.10;;;19.00;68.40;;;;;;5100578;28;20028;-57
2022/07/19 01:55:36;;;;;;;2.13;1.92;;;19.00;68.40;;;;;;5109011;28;20053;-57
2022/07/19 01:58:02;;;;;;;2.15;1.95;;;19.00;68.40;;;;;;5112664;27;20028;-57
2022/07/19 02:00:28;;;;;;;2.20;2.00;;;18.90;68.50;;;;;;5103372;28;20022;-57
2022/07/19 02:02:53;;;;;;;2.28;2.00;;;18.80;68.70;;;;;;5112004;27;20072;-57
2022/07/19 02:05:19;;;;;;;2.90;2.17;;;18.80;68.90;;;;;;5102175;28;20107;-57
2022/07/19 02:07:44;;;;;;;2.55;2.10;;;18.70;69.00;;;;;;5118439;27;20459;-57
2022/07/19 02:10:10;;;;;;;2.33;2.13;;;18.70;69.00;;;;;;5118832;27;20030;-57
2022/07/19 02:12:37;;;;;;;2.08;1.90;;;18.60;69.20;;;;;;5109237;27;20054;-57
2022/07/19 02:15:03;;;;;;;3.03;2.45;;;18.60;69.30;;;;;;5104670;27;20026;-57
2022/07/19 02:17:29;;;;;;;2.10;2.00;;;18.60;69.40;;;;;;5097164;28;20032;-57
2022/07/19 02:19:55;;;;;;;2.05;1.92;;;18.60;69.50;;;;;;5096019;28;20032;-57
2022/07/19 02:22:20;;;;;;;2.30;2.08;;;18.50;69.60;;;;;;5081940;28;20034;-56
2022/07/19 02:24:46;;;;;;;2.40;2.20;;;18.50;69.80;;;;;;5117819;28;20148;-57
2022/07/19 02:27:12;;;;;;;2.25;2.08;;;18.50;69.90;;;;;;5108776;28;20038;-57
2022/07/19 02:29:38;;;;;;;2.33;1.95;;;18.40;70.10;;;;;;5101243;28;20518;-57
2022/07/19 02:32:04;;;;;;;2.85;2.00;;;18.40;70.30;;;;;;5098862;28;20019;-57
2022/07/19 02:34:29;;;;;;;2.08;1.88;;;18.40;70.30;;;;;;5099150;28;20024;-57
2022/07/19 02:36:55;;;;;;;1.88;1.77;;;18.30;70.10;;;;;;5100634;27;20043;-56
2022/07/19 02:39:22;;;;;;;1.80;1.70;;;18.40;70.00;;;;;;5103131;27;20038;-57
2022/07/19 02:41:47;;;;;;;1.85;1.75;;;18.40;69.90;;;;;;5104329;27;20030;-59
2022/07/19 02:44:13;;;;;;;1.73;1.63;;;18.40;69.80;;;;;;5101845;28;20036;-59
2022/07/19 02:46:39;;;;;;;2.38;2.00;;;18.50;69.50;;;;;;5099770;28;20028;-59
2022/07/19 02:49:04;;;;;;;1.98;1.65;;;18.50;69.40;;;;;;5103281;27;20034;-59
2022/07/19 02:51:30;;;;;;;2.00;1.80;;;18.60;69.40;;;;;;5105488;27;20561;-59
2022/07/19 02:53:56;;;;;;;1.45;1.40;;;18.60;69.20;;;;;;5107757;27;20032;-59
2022/07/19 02:56:21;;;;;;;1.75;1.65;;;18.70;69.00;;;;;;5103554;27;20030;-56
2022/07/19 02:58:47;;;;;;;2.10;1.90;;;18.80;68.80;;;;;;5104998;28;20024;-56
2022/07/19 03:01:12;;;;;;;1.65;1.55;;;18.80;68.70;;;;;;5109969;27;20536;-57
2022/07/19 03:03:44;;;;;;;1.73;1.58;;;18.90;68.90;;;;;;5115119;27;20036;-56
2022/07/19 03:06:11;;;;;;;2.00;1.58;;;18.90;68.60;;;;;;5106243;28;20072;-57
2022/07/19 03:08:37;;;;;;;1.55;1.45;;;18.90;68.60;;;;;;5106136;27;20024;-59
2022/07/19 03:11:02;;;;;;;1.80;1.70;;;19.00;68.60;;;;;;5101484;28;20032;-57
2022/07/19 03:13:28;;;;;;;2.20;2.00;;;19.00;68.60;;;;;;5110972;27;20034;-57
2022/07/19 03:15:54;;;;;;;2.38;1.70;;;19.00;68.40;;;;;;5104425;28;20028;-57
2022/07/19 03:18:20;;;;;;;1.60;1.50;;;19.10;68.50;;;;;;5104736;27;20035;-57
2022/07/19 03:20:45;;;;;;;1.73;1.38;;;19.10;68.50;;;;;;5109682;27;20037;-57
2022/07/19 03:23:11;;;;;;;1.42;1.33;;;19.20;68.50;;;;;;5113268;27;20031;-57
2022/07/19 03:25:37;;;;;;;1.38;1.27;;;19.20;68.50;;;;;;5115258;27;20023;-57
2022/07/19 03:28:03;;;;;;;1.70;1.60;;;19.30;68.50;;;;;;5109640;27;20387;-57
2022/07/19 03:30:28;;;;;;;2.47;1.85;;;19.40;68.80;;;;;;5116856;27;20031;-58
2022/07/19 03:32:54;;;;;;;2.53;1.80;;;19.60;69.00;;;;;;5108756;27;20023;-57
2022/07/19 03:35:20;;;;;;;1.88;1.67;;;19.60;69.40;;;;;;5091280;28;20031;-56
2022/07/19 03:37:46;;;;;;;1.58;1.48;;;19.80;69.90;;;;;;5117707;27;20023;-57
2022/07/19 03:40:12;;;;;;;1.70;1.27;;;20.00;70.00;;;;;;5109629;28;20024;-57
2022/07/19 03:42:38;;;;;;;3.00;1.88;;;20.20;70.20;;;;;;5120598;27;20054;-57
2022/07/19 03:45:04;;;;;;;1.33;1.23;;;20.50;70.40;;;;;;5108008;27;20028;-56
2022/07/19 03:47:30;;;;;;;1.42;1.33;;;20.80;70.50;;;;;;5118981;27;20531;-58
2022/07/19 03:49:57;;;;;;;1.58;1.48;;;21.20;70.40;;;;;;5115586;27;20096;-57
2022/07/19 03:52:23;;;;;;;1.10;1.10;;;21.70;70.10;;;;;;5110273;27;20024;-56
2022/07/19 03:54:48;;;;;;;1.30;1.20;;;22.30;69.70;;;;;;5106663;27;20104;-57
2022/07/19 03:57:14;;;;;;;1.60;1.30;;;23.00;68.80;;;;;;5109137;27;20114;-58
2022/07/19 03:59:40;;;;;;;0.80;0.77;;;23.90;67.60;;;;;;5107604;28;20060;-58
2022/07/19 04:02:06;;;;;;;1.10;0.85;;;24.90;65.90;;;;;;5096133;28;20379;-58
2022/07/19 04:04:31;;;;;;;0.82;0.82;;;25.90;64.30;;;;;;5107855;27;20110;-57
2022/07/19 04:06:57;;;;;;;0.80;0.80;;;27.00;62.60;;;;;;5116129;27;20042;-58
2022/07/19 04:09:23;;;;;;;1.40;1.30;;;28.00;60.80;;;;;;5110345;28;20555;-58
2022/07/19 04:11:49;;;;;;;1.13;0.93;;;29.00;59.10;;;;;;5116048;27;20020;-57
2022/07/19 04:14:15;;;;;;;1.50;1.25;;;29.90;57.50;;;;;;5109694;27;20027;-58
2022/07/19 04:16:40;;;;;;;1.40;1.30;;;30.60;56.30;;;;;;5113981;27;20032;-58
2022/07/19 04:19:06;;;;;;;1.02;0.95;;;31.30;54.90;;;;;;5113308;27;20453;-57
2022/07/19 04:21:32;;;;;;;1.58;1.00;;;32.10;54.20;;;;;;5117646;27;20503;-58
2022/07/19 04:23:57;;;;;;;1.50;1.30;;;32.70;52.90;;;;;;5112234;27;20379;-58
2022/07/19 04:26:23;;;;;;;2.40;0.80;;;33.30;52.00;;;;;;5117301;27;20019;-58
2022/07/19 04:28:49;;;;;;;0.90;0.90;;;33.80;50.80;;;;;;5109908;27;20534;-58
2022/07/19 04:31:15;;;;;;;1.40;1.27;;;34.20;50.10;;;;;;5098984;28;20391;-57
2022/07/19 04:33:41;;;;;;;0.98;0.98;;;34.60;49.40;;;;;;5109783;27;20038;-58
2022/07/19 04:36:06;;;;;;;1.20;1.10;;;34.90;48.70;;;;;;5108094;27;20074;-58
2022/07/19 04:38:32;;;;;;;1.00;1.00;;;35.20;48.50;;;;;;5123025;27;20065;-58
2022/07/19 04:40:58;;;;;;;1.20;1.10;;;35.60;47.90;;;;;;5108832;27;20035;-58
2022/07/19 04:43:23;;;;;;;1.38;1.05;;;35.90;47.40;;;;;;5098820;27;20490;-58
2022/07/19 04:45:49;;;;;;;1.02;0.95;;;36.30;47.10;;;;;;5105251;27;20488;-58
2022/07/19 04:48:14;;;;;;;1.23;1.08;;;36.60;46.80;;;;;;5105411;27;20099;-58
2022/07/19 04:50:40;;;;;;;0.98;0.90;;;37.10;46.50;;;;;;5104973;27;20052;-58
2022/07/19 04:53:07;;;;;;;1.17;1.08;;;37.50;45.80;;;;;;5110378;27;20020;-58
2022/07/19 04:55:33;;;;;;;0.68;0.68;;;37.80;45.60;;;;;;5111168;28;20023;-58
2022/07/19 04:57:59;;;;;;;1.10;1.00;;;38.10;45.30;;;;;;5100853;27;20051;-58
2022/07/19 05:00:25;;;;;;;0.75;0.70;;;38.40;44.90;;;;;;5097655;28;20059;-58
2022/07/19 05:02:53;;;;;;;0.88;0.88;;;38.70;44.60;;;;;;5112274;27;20023;-58
2022/07/19 05:05:19;;;;;;;1.60;1.50;;;39.00;44.00;;;;;;5098136;28;20031;-58
2022/07/19 05:07:44;;;;;;;0.65;0.63;;;39.20;43.60;;;;;;5115583;27;20028;-58
2022/07/19 05:10:11;;;;;;;1.25;1.15;;;39.50;43.20;;;;;;5105793;28;20077;-58
2022/07/19 05:12:37;;;;;;;1.58;0.98;;;39.60;42.70;;;;;;5108495;27;20072;-57
2022/07/19 05:15:05;;;;;;;1.38;1.00;;;39.70;42.40;;;;;;5099934;28;20407;-58
2022/07/19 05:17:30;;;;;;;1.92;1.13;;;39.60;42.20;;;;;;5099919;28;20020;-58
2022/07/19 05:19:56;;;;;;;0.95;0.85;;;39.40;42.10;;;;;;5105566;27;20027;-58
2022/07/19 05:22:24;;;;;;;0.95;0.95;;;39.40;41.90;;;;;;5105756;27;20038;-58
2022/07/19 05:24:50;;;;;;;0.70;0.70;;;39.20;41.80;;;;;;5106346;28;20019;-58
2022/07/19 05:27:16;;;;;;;1.15;0.85;;;39.20;41.30;;;;;;5107747;27;20098;-58
2022/07/19 05:29:41;;;;;;;0.75;0.57;;;39.10;40.70;;;;;;5106713;27;20442;-58
2022/07/19 05:32:07;;;;;;;0.60;0.60;;;38.70;40.40;;;;;;5101269;27;20128;-58
2022/07/19 05:34:33;;;;;;;0.60;0.60;;;38.30;40.60;;;;;;5103305;27;20123;-58
2022/07/19 05:36:58;;;;;;;0.85;0.77;;;37.60;40.60;;;;;;5111440;27;20107;-58
2022/07/19 05:39:24;;;;;;;0.73;0.70;;;36.60;41.00;;;;;;5095121;27;20759;-58
2022/07/19 05:41:50;;;;;;;0.80;0.80;;;35.70;41.50;;;;;;5099404;28;20024;-58
2022/07/19 05:44:15;;;;;;;0.98;0.88;;;34.70;42.20;;;;;;5096365;27;20024;-58
2022/07/19 05:46:41;;;;;;;0.90;0.73;;;33.70;42.80;;;;;;5098751;27;20421;-58
2022/07/19 05:49:10;;;;;;;0.88;0.80;;;32.80;43.50;;;;;;5097159;27;20019;-58
2022/07/19 05:51:36;;;;;;;0.73;0.73;;;32.00;44.20;;;;;;5094735;27;20111;-58
2022/07/19 05:54:03;;;;;;;1.02;0.93;;;31.30;44.70;;;;;;5093988;28;20028;-56
2022/07/19 05:56:29;;;;;;;1.02;1.02;;;30.60;45.40;;;;;;5107380;27;20035;-58
2022/07/19 05:58:55;;;;;;;1.40;1.30;;;30.10;46.10;;;;;;5100110;27;20406;-58
2022/07/19 06:01:24;;;;;;;1.17;1.02;;;29.60;46.60;;;;;;5102182;27;20679;-58
2022/07/19 06:03:56;;;;;;;1.23;1.20;;;29.20;47.30;;;;;;5094045;27;20031;-58
2022/07/19 06:06:23;;;;;;;1.23;1.13;;;28.80;47.60;;;;;;5092568;27;20042;-58
2022/07/19 06:08:49;;;;;;;1.20;1.10;;;28.40;47.90;;;;;;5094119;28;20460;-58
2022/07/19 06:11:16;;;;;;;1.25;1.05;;;28.10;48.30;;;;;;5096264;27;20027;-58
2022/07/19 06:13:43;;;;;;;1.90;1.30;;;27.90;48.40;;;;;;5094021;28;20044;-58
2022/07/19 06:16:09;;;;;;;1.42;1.27;;;27.60;48.80;;;;;;5081299;27;21289;-57
2022/07/19 06:18:36;;;;;;;1.17;1.08;;;27.40;49.00;;;;;;5095960;28;20606;-58
2022/07/19 06:21:03;;;;;;;1.27;1.17;;;27.20;49.20;;;;;;5096547;27;20042;-58
2022/07/19 06:23:29;;;;;;;1.42;1.30;;;27.00;49.60;;;;;;5082379;28;20107;-58
2022/07/19 06:25:55;;;;;;;0.88;0.88;;;26.90;50.10;;;;;;5083562;28;20109;-58
2022/07/19 06:28:20;;;;;;;1.20;1.10;;;26.70;50.30;;;;;;5100950;28;20024;-57
2022/07/19 06:30:46;;;;;;;1.30;1.20;;;26.70;50.70;;;;;;5091903;28;20031;-58
2022/07/19 06:33:12;;;;;;;1.00;1.00;;;26.60;51.10;;;;;;5091130;28;20510;-58
2022/07/19 06:35:40;;;;;;;1.33;1.20;;;26.40;51.10;;;;;;5085986;28;20081;-58
2022/07/19 06:38:05;;;;;;;1.10;1.10;;;26.30;51.40;;;;;;5090860;28;20057;-57
2022/07/19 06:40:31;;;;;;;1.02;1.02;;;26.20;51.40;;;;;;5088519;28;20032;-58
2022/07/19 06:42:57;;;;;;;1.33;1.23;;;26.20;51.50;;;;;;5089386;28;21135;-58
2022/07/19 06:45:22;;;;;;;1.02;0.95;;;26.00;51.50;;;;;;5089663;28;20097;-57
2022/07/19 06:47:50;;;;;;;1.38;1.27;;;26.00;51.90;;;;;;5090879;28;20034;-56
2022/07/19 06:50:16;;;;;;;2.58;1.08;;;25.90;52.10;;;;;;5088029;28;20051;-57
2022/07/19 06:52:41;;;;;;;0.90;0.90;;;25.90;52.30;;;;;;5089430;28;20027;-58
2022/07/19 06:55:07;;;;;;;1.45;1.35;;;25.90;52.40;;;;;;5084993;28;20101;-58
2022/07/19 06:57:33;;;;;;;1.20;1.10;;;25.80;52.50;;;;;;5083129;28;20040;-56
2022/07/19 07:00:00;;;;;;;0.80;0.80;;;25.80;52.50;;;;;;5086301;28;20040;-57
2022/07/19 07:02:25;;;;;;;0.90;0.90;;;25.80;52.60;;;;;;5083862;28;23694;-57
2022/07/19 07:04:51;;;;;;;1.08;1.05;;;25.80;52.80;;;;;;5085500;28;20051;-56
2022/07/19 07:07:16;;;;;;;1.13;1.10;;;25.80;53.00;;;;;;5092695;28;20032;-57
2022/07/19 07:09:42;;;;;;;1.05;1.05;;;25.80;53.20;;;;;;5088761;28;20042;-57
2022/07/19 07:12:08;;;;;;;0.98;0.95;;;25.80;53.20;;;;;;5086319;28;20032;-56
2022/07/19 07:14:34;;;;;;;1.08;0.98;;;25.80;53.20;;;;;;5084417;28;20032;-57
2022/07/19 07:17:00;;;;;;;1.25;1.15;;;25.80;53.10;;;;;;5085426;28;20044;-57
2022/07/19 07:19:26;;;;;;;1.40;1.27;;;25.80;53.20;;;;;;5087444;28;20036;-55
2022/07/19 07:21:53;;;;;;;1.95;1.20;;;25.80;53.30;;;;;;5076134;28;20031;-57
2022/07/19 07:24:18;;;;;;;1.33;1.23;;;25.80;53.40;;;;;;5090364;27;20036;-57
2022/07/19 07:26:44;;;;;;;1.33;1.30;;;25.80;53.40;;;;;;5080243;27;20068;-58
2022/07/19 07:29:10;;;;;;;1.48;1.35;;;25.90;53.70;;;;;;5086663;27;20035;-57
2022/07/19 07:31:36;;;;;;;1.40;1.30;;;25.80;53.60;;;;;;5089520;27;20066;-58
2022/07/19 07:34:02;;;;;;;1.30;1.20;;;25.80;53.70;;;;;;5083991;27;20120;-57
2022/07/19 07:36:28;;;;;;;1.00;1.00;;;25.80;53.90;;;;;;5075643;27;20028;-54
2022/07/19 07:38:54;;;;;;;1.10;1.00;;;25.80;53.90;;;;;;5076666;27;20047;-58
2022/07/19 07:41:19;;;;;;;2.15;1.42;;;25.80;54.00;;;;;;5080725;27;20036;-58
2022/07/19 07:43:45;;;;;;;0.68;0.68;;;25.80;54.00;;;;;;5078867;27;20100;-56
2022/07/19 07:46:11;;;;;;;0.77;0.77;;;25.80;53.90;;;;;;5087657;27;20031;-58
2022/07/19 07:48:36;;;;;;;0.80;0.80;;;25.80;54.00;;;;;;5081876;27;20124;-59
2022/07/19 07:51:02;;;;;;;1.15;1.10;;;25.80;54.00;;;;;;5081313;27;20776;-58
2022/07/19 07:53:28;;;;;;;1.15;1.08;;;25.80;54.10;;;;;;5089988;27;20040;-60
2022/07/19 07:55:53;;;;;;;1.00;1.00;;;25.70;54.10;;;;;;5092292;27;20069;-58
2022/07/19 07:58:19;;;;;;;1.13;1.10;;;25.70;54.20;;;;;;5086079;27;20051;-58
2022/07/19 08:00:45;;;;;;;1.35;0.82;;;25.60;53.90;;;;;;5085149;27;20525;-59
2022/07/19 08:03:11;;;;;;;0.77;0.77;;;25.60;53.60;;;;;;5078701;27;20122;-57
2022/07/19 08:05:36;;;;;;;1.10;1.08;;;25.60;53.80;;;;;;5079800;27;20028;-58
2022/07/19 08:08:03;;;;;;;1.40;1.00;;;25.60;53.90;;;;;;5070037;27;20024;-58
2022/07/19 08:10:32;;;;;;;1.08;0.98;;;25.60;53.80;;;;;;5080401;27;20101;-58
2022/07/19 08:12:57;;;;;;;1.20;1.10;;;25.60;53.90;;;;;;5074226;27;20114;-59
2022/07/19 08:15:23;;;;;;;0.73;0.73;;;25.60;53.80;;;;;;5071038;27;20589;-58
2022/07/19 08:17:49;;;;;;;0.95;0.82;;;25.60;53.50;;;;;;5073602;28;20103;-58
2022/07/19 08:20:15;;;;;;;0.90;0.90;;;25.60;53.50;;;;;;5053509;27;20073;-59
2022/07/19 08:22:41;;;;;;;1.13;0.95;;;25.60;53.70;;;;;;5072898;27;20052;-58
2022/07/19 08:25:07;;;;;;;1.17;1.10;;;25.60;54.00;;;;;;5074822;27;20032;-57
2022/07/19 08:27:33;;;;;;;1.40;1.30;;;25.60;54.20;;;;;;5082070;27;23069;-57
2022/07/19 08:29:59;;;;;;;1.08;1.05;;;25.60;54.30;;;;;;5083615;27;20039;-58
2022/07/19 08:32:25;;;;;;;0.93;0.93;;;25.60;54.60;;;;;;5062518;27;20032;-57
2022/07/19 08:34:51;;;;;;;1.27;1.15;;;25.60;54.50;;;;;;5071861;27;20051;-57
2022/07/19 08:37:17;;;;;;;2.40;1.35;;;25.60;54.70;;;;;;5079457;27;20038;-58
2022/07/19 08:39:43;;;;;;;1.02;0.95;;;25.60;54.70;;;;;;5073224;28;20593;-57
2022/07/19 08:42:09;;;;;;;0.80;0.80;;;25.60;54.70;;;;;;5076438;27;20031;-56
2022/07/19 08:44:38;;;;;;;0.90;0.90;;;25.60;54.50;;;;;;5076939;27;20047;-59
2022/07/19 08:47:05;;;;;;;0.90;0.90;;;25.60;54.60;;;;;;5083685;27;20438;-57
2022/07/19 08:49:32;;;;;;;0.82;0.82;;;25.60;54.40;;;;;;5084891;27;20031;-58
2022/07/19 08:51:58;;;;;;;1.20;1.00;;;25.60;54.20;;;;;;5080923;27;20032;-59
2022/07/19 08:54:25;;;;;;;1.83;1.17;;;25.60;54.00;;;;;;5082721;27;20039;-57
2022/07/19 08:59:35;;;;;;;0.90;0.90;;;25.60;53.60;;;;;;5076863;27;20081;-58
2022/07/19 09:02:01;;;;;;;0.70;0.70;;;25.60;53.40;;;;;;5067912;27;20028;-58
2022/07/19 09:04:28;;;;;;;1.35;1.02;;;25.60;53.40;;;;;;5086594;27;20042;-59
2022/07/19 09:06:58;;;;;;;0.75;0.75;;;25.70;53.20;;;;;;5084117;27;20043;-59
2022/07/19 09:09:24;;;;;;;0.90;0.90;;;25.70;53.30;;;;;;5087250;27;20027;-59
2022/07/19 09:11:52;;;;;;;1.10;1.00;;;25.70;53.30;;;;;;5090212;27;20024;-58
2022/07/19 09:14:21;;;;;;;0.73;0.73;;;25.70;53.30;;;;;;5081220;27;20189;-58
2022/07/19 09:17:02;;;;;;;2.00;1.27;;;25.80;53.20;;;;;;5081838;28;20080;-57
2022/07/19 09:19:31;;;;;;;1.02;0.90;;;25.70;53.00;;;;;;5087452;27;20097;-56
2022/07/19 09:22:05;;;;;;;0.80;0.80;;;25.70;52.90;;;;;;5087284;27;20064;-57
2022/07/19 09:24:34;;;;;;;1.00;1.00;;;25.70;53.00;;;;;;5084758;27;20031;-59
2022/07/19 09:27:10;;;;;;;0.65;0.65;;;25.70;53.10;;;;;;5078262;27;20031;-57
2022/07/19 09:29:38;;;;;;;0.98;0.98;;;25.80;53.20;;;;;;5078881;27;20027;-58
2022/07/19 09:32:16;;;;;;;0.60;0.60;;;25.80;53.30;;;;;;5076154;27;20056;-58
2022/07/19 09:35:02;;;;;;;1.38;1.10;;;25.70;53.20;;;;;;5077393;27;20737;-58
2022/07/19 09:37:30;;;;;;;0.88;0.88;;;25.70;53.20;;;;;;5080701;27;20055;-57
2022/07/19 09:40:04;;;;;;;1.40;1.23;;;25.70;53.40;;;;;;5088143;28;20035;-58
2022/07/19 09:42:41;;;;;;;0.80;0.80;;;25.70;53.30;;;;;;5082064;27;20398;-58
2022/07/19 09:45:20;;;;;;;0.93;0.93;;;25.60;53.40;;;;;;5076956;27;22466;-57
2022/07/19 09:47:48;;;;;;;1.05;0.95;;;25.60;53.40;;;;;;5076517;27;20104;-57
2022/07/19 09:50:17;;;;;;;0.90;0.90;;;25.60;53.50;;;;;;5080002;27;20040;-58
2022/07/19 09:52:44;;;;;;;1.00;1.00;;;25.50;53.70;;;;;;5086223;27;20042;-57
2022/07/19 09:55:11;;;;;;;0.80;0.80;;;25.50;53.70;;;;;;5076378;27;20069;-56
2022/07/19 09:57:47;;;;;;;0.90;0.90;;;25.50;53.70;;;;;;5081892;27;20031;-57
2022/07/19 10:00:16;;;;;;;1.83;1.40;;;25.50;53.60;;;;;;5077644;28;22691;-57
2022/07/19 10:02:48;;;;;;;1.00;1.00;;;25.50;53.50;;;;;;5077955;27;20038;-57
2022/07/19 10:05:15;;;;;;;1.08;0.98;;;25.50;53.70;;;;;;5087443;27;20058;-59
2022/07/19 10:07:41;;;;;;;1.30;1.17;;;25.50;53.60;;;;;;5082413;27;20028;-57
2022/07/19 10:10:12;;;;;;;0.90;0.90;;;25.50;53.70;;;;;;5073076;27;20059;-57
2022/07/19 10:12:43;;;;;;;1.00;1.00;;;25.50;53.70;;;;;;5081019;28;20054;-58
2022/07/19 10:15:12;;;;;;;1.23;0.98;;;25.50;53.70;;;;;;5083262;27;20114;-57
2022/07/19 10:17:47;;;;;;;0.63;0.63;;;25.50;53.60;;;;;;5074722;27;20027;-58
2022/07/19 10:20:20;;;;;;;0.95;0.95;;;25.60;53.60;;;;;;5070113;28;20055;-58
2022/07/19 10:22:46;;;;;;;2.55;1.25;;;25.60;53.40;;;;;;5073164;27;20134;-57
2022/07/19 10:25:17;;;;;;;1.13;0.88;;;25.60;54.00;;;;;;5059682;28;20082;-58
2022/07/19 10:27:57;;;;;;;0.98;0.98;;;25.70;53.40;;;;;;5067370;28;20066;-57
2022/07/19 10:30:25;;;;;;;0.80;0.80;;;25.70;53.30;;;;;;5064422;28;20034;-58
2022/07/19 10:32:53;;;;;;;1.05;0.90;;;25.70;53.30;;;;;;5078859;28;20073;-57
2022/07/19 10:35:20;;;;;;;1.02;1.02;;;25.70;53.10;;;;;;5082378;28;20027;-58
2022/07/19 10:37:54;;;;;;;1.20;1.10;;;25.80;53.30;;;;;;5080509;28;20455;-58
2022/07/19 10:40:45;;;;;;;1.02;1.02;;;25.80;53.10;;;;;;5081955;28;20105;-58
2022/07/19 10:43:16;;;;;;;1.00;0.98;;;25.80;53.00;;;;;;5074633;28;20031;-58
2022/07/19 10:45:57;;;;;;;;;;;25.80;52.90;;;;;;5084713;28;20034;-58
2022/07/19 10:48:39;;;;;;;1.40;1.30;;;25.70;52.80;;;;;;5084196;28;20018;-57
2022/07/19 10:51:07;;;;;;;1.40;1.30;;;25.70;52.90;;;;;;5084967;28;20036;-57
2022/07/19 10:53:42;;;;;;;0.93;0.93;;;25.60;52.90;;;;;;5081671;28;20036;-58
2022/07/19 10:56:27;;;;;;;1.52;1.13;;;25.50;52.90;;;;;;5081369;28;20032;-57
2022/07/19 10:58:56;;;;;;;1.42;1.20;;;25.40;52.80;;;;;;5084544;27;20093;-57
2022/07/19 11:01:24;;;;;;;1.10;1.08;;;25.30;53.00;;;;;;5073365;27;20745;-57
2022/07/19 11:03:52;;;;;;;0.95;0.95;;;25.30;53.30;;;;;;5083599;27;20846;-58
2022/07/19 11:06:27;;;;;;;1.30;1.20;;;25.20;53.30;;;;;;5088796;27;20023;-58
2022/07/19 11:08:55;;;;;;;3.75;2.70;;;25.20;53.50;;;;;;5089453;27;20120;-58
2022/07/19 11:11:23;;;;;;;2.10;1.90;;;25.20;53.50;;;;;;5083575;27;20525;-56
2022/07/19 11:13:51;;;;;;;2.17;1.90;;;25.20;53.60;;;;;;5081394;27;20035;-58
2022/07/19 11:16:18;;;;;;;2.60;1.95;;;25.10;53.50;;;;;;5084386;27;20081;-56
2022/07/19 11:18:44;;;;;;;1.70;1.52;;;25.10;53.60;;;;;;5088441;27;20396;-57
2022/07/19 11:21:15;;;;;;;1.42;1.33;;;25.00;54.10;;;;;;5068527;28;20514;-58
2022/07/19 11:23:41;;;;;;;1.10;1.10;;;25.00;54.40;;;;;;5065903;28;20944;-57
2022/07/19 11:26:10;;;;;;;1.10;1.00;;;25.00;54.20;;;;;;5086012;27;20449;-57
2022/07/19 11:28:37;;;;;;;1.55;1.30;;;24.90;54.30;;;;;;5063061;28;20478;-57
2022/07/19 11:31:21;;;;;;;1.08;1.00;;;24.80;54.30;;;;;;5086198;27;20024;-58
2022/07/19 11:33:49;;;;;;;0.70;0.70;;;24.80;54.50;;;;;;5074073;27;20032;-59
2022/07/19 11:36:17;;;;;;;1.10;1.00;;;24.80;54.70;;;;;;5080562;27;20070;-58
2022/07/19 11:38:48;;;;;;;0.73;0.73;;;24.80;54.80;;;;;;5082252;27;20026;-59
2022/07/19 11:41:18;;;;;;;1.63;1.00;;;24.80;54.80;;;;;;5086786;27;20398;-57
2022/07/19 11:44:07;;;;;;;2.92;1.23;;;24.80;54.80;;;;;;5088246;27;20047;-58
2022/07/19 11:46:40;;;;;;;1.30;1.20;;;24.70;54.80;;;;;;5087076;27;20063;-57
2022/07/19 11:49:08;;;;;;;1.25;1.15;;;24.70;54.90;;;;;;5077783;28;20031;-57
2022/07/19 11:51:36;;;;;;;1.88;0.98;;;24.70;55.00;;;;;;5083534;27;20508;-58
2022/07/19 11:54:04;;;;;;;1.20;1.10;;;24.70;55.10;;;;;;5082281;27;20082;-58
2022/07/19 11:56:33;;;;;;;1.40;1.30;;;24.80;55.00;;;;;;5080752;27;20040;-58
2022/07/19 11:59:07;;;;;;;1.02;1.02;;;24.80;55.00;;;;;;5081444;27;20035;-59
2022/07/19 12:01:35;;;;;;;1.42;1.33;;;24.80;54.80;;;;;;5081519;28;20034;-58
2022/07/19 12:04:03;;;;;;;1.42;1.33;;;24.90;54.90;;;;;;5077253;27;20402;-57
2022/07/19 12:06:50;;;;;;;1.05;1.05;;;25.00;55.00;;;;;;5078998;27;20521;-57
2022/07/19 12:09:25;;;;;;;1.38;1.15;;;25.00;54.90;;;;;;5084337;27;20032;-57
2022/07/19 12:11:53;;;;;;;1.30;1.25;;;25.00;55.00;;;;;;5082155;27;20807;-56
2022/07/19 12:14:26;;;;;;;1.10;1.10;;;25.10;55.20;;;;;;5079845;27;20447;-57
2022/07/19 12:17:16;;;;;;;1.58;1.48;;;25.20;55.00;;;;;;5079329;27;20469;-57
2022/07/19 12:19:52;;;;;;;3.60;1.58;;;25.20;54.90;;;;;;5079407;27;20468;-58
2022/07/19 12:22:30;;;;;;;2.08;1.27;;;25.30;54.80;;;;;;5085051;27;20053;-58
2022/07/19 12:24:55;;;;;;;1.40;1.30;;;25.40;54.60;;;;;;5077319;27;20039;-57
2022/07/19 12:27:27;;;;;;;1.85;1.63;;;25.30;54.60;;;;;;5085101;27;20050;-57
2022/07/19 12:29:54;;;;;;;1.48;1.40;;;25.40;54.80;;;;;;5085616;27;20024;-56
2022/07/19 12:32:31;;;;;;;2.08;1.65;;;25.30;55.00;;;;;;5078927;27;20482;-58
2022/07/19 12:35:17;;;;;;;1.35;1.25;;;25.30;55.20;;;;;;5081031;27;20484;-58
2022/07/19 12:37:45;;;;;;;1.77;1.58;;;25.20;55.60;;;;;;5078948;27;20050;-56
2022/07/19 12:40:24;;;;;;;1.55;1.45;;;25.20;55.60;;;;;;5081808;27;20503;-58
2022/07/19 12:42:59;;;;;;;1.70;1.60;;;25.20;55.70;;;;;;5084817;27;20039;-57
2022/07/19 12:45:26;;;;;;;1.83;1.45;;;25.20;55.80;;;;;;5079201;27;20458;-58
2022/07/19 12:47:52;;;;;;;2.55;1.50;;;25.20;55.80;;;;;;5082587;27;20042;-59
2022/07/19 12:50:25;;;;;;;2.38;1.55;;;25.20;55.90;;;;;;5088092;27;20040;-57
2022/07/19 12:52:53;;;;;;;1.83;1.25;;;25.20;55.90;;;;;;5082603;27;20051;-59